^^
Your Local Weather - Clay, NY Station Historical Data
Daily Summary for February 15, 2018 Units:  Metric    English   Both
« Previous Day
Next Day »
Daily Weekly Monthly Yearly Custom
  High: Low: Average:
Temperature: 14.3 °C -3.8 °C 6.3 °C
Dew Point: 7.7 °C -5.2 °C 3.1 °C
Humidity: 92% 57% 82%
Wind Speed: 11.3km/h 0km/h 2.1km/h
Wind Gust: 22.5km/h - -
Wind- - SW
Pressure: 1012.8 hPa 1001.2 hPa -
Precipitation: 0.25 mm    
Historical Graphs
 
 
Tabular Data for February 15, 2018
Time Temperature Dew Point Pressure Wind Wind Speed Wind Gust Humidity Rainfall Rate (Hourly) solar
00:00 -2.4 °C -3.8 °C 1012.8 hPa Calm     90% 0 mm 0 W/m2
00:06 -2.7 °C -4.1 °C 1012.8 hPa Calm     90% 0 mm 0 W/m2
00:12 -2.8 °C -4.2 °C 1012.8 hPa Calm     90% 0 mm 0 W/m2
00:18 -2.9 °C -4.3 °C 1012.4 hPa Calm     90% 0 mm 0 W/m2
00:24 -3 °C -4.4 °C 1012.8 hPa Calm     90% 0 mm 0 W/m2
00:30 -3.1 °C -4.4 °C 1012.8 hPa Calm     90% 0 mm 0 W/m2
00:36 -3.2 °C -4.6 °C 1012.4 hPa Calm     90% 0 mm 0 W/m2
00:42 -3.4 °C -4.8 °C 1012.4 hPa Calm     90% 0 mm 0 W/m2
00:48 -3.4 °C -4.8 °C 1012.4 hPa Calm     90% 0 mm 0 W/m2
00:54 -3.5 °C -4.9 °C 1012.4 hPa Calm     90% 0 mm 0 W/m2
01:00 -3.4 °C -4.8 °C 1012.1 hPa Calm     90% 0 mm 0 W/m2
01:06 -3.4 °C -4.7 °C 1012.1 hPa Calm     91% 0 mm 0 W/m2
01:12 -3.3 °C -4.6 °C 1012.1 hPa Calm     91% 0 mm 0 W/m2
01:18 -3.4 °C -4.8 °C 1012.1 hPa Calm     90% 0 mm 0 W/m2
01:24 -3.6 °C -4.9 °C 1011.7 hPa Calm     90% 0 mm 0 W/m2
01:30 -3.7 °C -5 °C 1011.7 hPa Calm     91% 0 mm 0 W/m2
01:36 -3.8 °C -5.2 °C 1011.7 hPa Calm     90% 0 mm 0 W/m2
01:42 -3.8 °C -5.2 °C 1011.7 hPa Calm     90% 0 mm 0 W/m2
01:48 -3.8 °C -5.1 °C 1011.7 hPa Calm     91% 0 mm 0 W/m2
01:54 -3.8 °C -5.1 °C 1011.7 hPa Calm     91% 0 mm 0 W/m2
02:00 -3.7 °C -5 °C 1011.7 hPa Calm     91% 0 mm 0 W/m2
02:06 -3.7 °C -4.9 °C 1011.7 hPa Calm     91% 0 mm 0 W/m2
02:12 -3.7 °C -4.9 °C 1011.4 hPa Calm     91% 0 mm 0 W/m2
02:18 -3.7 °C -5 °C 1011.4 hPa Calm     91% 0 mm 0 W/m2
02:24 -3.7 °C -5 °C 1011.4 hPa Calm     91% 0 mm 0 W/m2
02:30 -3.6 °C -4.9 °C 1011.4 hPa Calm     91% 0 mm 0 W/m2
02:36 -3.4 °C -4.7 °C 1011.4 hPa Calm     91% 0 mm 0 W/m2
02:42 -3.1 °C -4.4 °C 1011.1 hPa Calm     91% 0 mm 0 W/m2
02:48 -2.9 °C -4.2 °C 1010.7 hPa Calm     91% 0 mm 0 W/m2
02:54 -2.7 °C -4 °C 1010.7 hPa Calm     91% 0 mm 0 W/m2
03:00 -2.4 °C -3.7 °C 1010.7 hPa Calm     91% 0 mm 0 W/m2
03:06 -2.2 °C -3.5 °C 1010.7 hPa Calm     91% 0 mm 0 W/m2
03:12 -2.1 °C -3.2 °C 1010.7 hPa Calm     92% 0 mm 0 W/m2
03:18 -1.8 °C -2.9 °C 1010.4 hPa Calm     92% 0 mm 0 W/m2
03:24 -1.7 °C -2.8 °C 1010.4 hPa Calm   1.6 km/h 92% 0 mm 0 W/m2
03:30 -1.3 °C -2.4 °C 1010.4 hPa Calm     92% 0 mm 0 W/m2
03:36 -1.1 °C -2.2 °C 1010.4 hPa Calm     92% 0 mm 0 W/m2
03:42 -0.9 °C -2 °C 1010 hPa Calm     92% 0 mm 0 W/m2
03:48 -0.7 °C -1.8 °C 1009.7 hPa Calm   3.2 km/h 92% 0 mm 0 W/m2
03:54 -0.4 °C -1.6 °C 1009.7 hPa Calm   1.6 km/h 92% 0 mm 0 W/m2
04:00 -0.2 °C -1.3 °C 1009.7 hPa Calm     92% 0 mm 0 W/m2
04:10 0.2 °C -1 °C 1009.7 hPa SE 1.6 km/h 3.2 km/h 92% 0 mm 0 W/m2
04:16 0.3 °C -0.9 °C 1009.4 hPa SE 1.6 km/h 3.2 km/h 92% 0 mm 0 W/m2
04:22 0.4 °C -0.8 °C 1009.4 hPa Calm     92% 0 mm 0 W/m2
04:28 0.4 °C -0.7 °C 1009.7 hPa Calm     92% 0 mm 0 W/m2
04:34 0.4 °C -0.7 °C 1009.4 hPa Calm     92% 0 mm 0 W/m2
04:40 0.3 °C -0.8 °C 1009.7 hPa Calm     92% 0 mm 0 W/m2
04:46 0.3 °C -0.8 °C 1009.4 hPa Calm     92% 0 mm 0 W/m2
04:52 0.3 °C -0.9 °C 1009 hPa Calm   3.2 km/h 92% 0 mm 0 W/m2
04:58 0.2 °C -0.9 °C 1009 hPa Calm   3.2 km/h 92% 0 mm 0 W/m2
05:04 0.3 °C -0.9 °C 1009 hPa Calm   1.6 km/h 92% 0 mm 0 W/m2
05:10 0.3 °C -0.8 °C 1009 hPa Calm     92% 0 mm 0 W/m2
05:16 0.4 °C -0.8 °C 1009 hPa Calm     92% 0 mm 0 W/m2
05:22 0.5 °C -0.7 °C 1009 hPa Calm     92% 0 mm 0 W/m2
05:28 0.5 °C -0.7 °C 1008.7 hPa Calm   1.6 km/h 92% 0 mm 0 W/m2
05:34 0.7 °C -0.5 °C 1009 hPa Calm     92% 0 mm 0 W/m2
05:40 0.9 °C -0.3 °C 1008.7 hPa Calm     92% 0 mm 0 W/m2
05:46 0.9 °C -0.3 °C 1008.7 hPa Calm   1.6 km/h 92% 0 mm 0 W/m2
05:52 0.9 °C -0.3 °C 1008.4 hPa Calm     92% 0 mm 0 W/m2
05:58 0.9 °C -0.3 °C 1008.4 hPa Calm     92% 0 mm 0 W/m2
06:04 0.9 °C -0.2 °C 1008.4 hPa Calm   3.2 km/h 92% 0 mm 0 W/m2
06:10 0.8 °C -0.3 °C 1008 hPa Calm     92% 0 mm 0 W/m2
06:16 0.7 °C -0.4 °C 1008 hPa Calm     92% 0 mm 0 W/m2
06:22 0.8 °C -0.3 °C 1008 hPa Calm     92% 0 mm 0 W/m2
06:28 1.1 °C -0.1 °C 1008 hPa Calm     92% 0 mm 0 W/m2
06:34 0.9 °C -0.2 °C 1007.7 hPa Calm     92% 0 mm 0 W/m2
06:40 0.9 °C -0.2 °C 1007.7 hPa Calm     92% 0 mm 0 W/m2
06:46 0.9 °C -0.3 °C 1007.3 hPa Calm     92% 0 mm 0 W/m2
06:52 0.9 °C -0.3 °C 1007.3 hPa Calm     92% 0 mm 0 W/m2
06:58 0.9 °C -0.2 °C 1007.7 hPa Calm     92% 0 mm 0 W/m2
07:04 1.1 °C -0.1 °C 1007.7 hPa Calm     92% 0 mm 0 W/m2
07:10 1.1 °C -0.1 °C 1007.7 hPa Calm     92% 0 mm 5 W/m2
07:16 1.2 °C 0 °C 1007.3 hPa Calm     92% 0 mm 7 W/m2
07:22 1.2 °C 0 °C 1007.7 hPa Calm     92% 0 mm 7 W/m2
07:28 1.1 °C -0.2 °C 1007.7 hPa Calm     91% 0 mm 7 W/m2
07:34 1.1 °C -0.2 °C 1007.7 hPa Calm     91% 0 mm 7 W/m2
07:40 1.2 °C -0.1 °C 1007 hPa South 1.6 km/h 1.6 km/h 91% 0 mm 28 W/m2
07:46 1.4 °C 0.3 °C 1007.3 hPa South 1.6 km/h 1.6 km/h 92% 0 mm 28 W/m2
07:52 1.8 °C 0.6 °C 1007 hPa SE 1.6 km/h 3.2 km/h 92% 0 mm 47 W/m2
07:58 2 °C 0.8 °C 1007 hPa SE 1.6 km/h 3.2 km/h 92% 0 mm 56 W/m2
08:04 2.1 °C 0.9 °C 1007 hPa Calm   1.6 km/h 92% 0 mm 60 W/m2
08:10 2.2 °C 1.1 °C 1007 hPa Calm     92% 0 mm 83 W/m2
08:16 2.6 °C 1.4 °C 1006.7 hPa Calm   1.6 km/h 92% 0 mm 83 W/m2
08:22 3 °C 1.8 °C 1006.3 hPa SE 1.6 km/h 1.6 km/h 92% 0 mm 95 W/m2
08:28 4.3 °C 3.2 °C 1006.7 hPa SSE 1.6 km/h 3.2 km/h 92% 0 mm 58 W/m2
08:34 5.4 °C 4.2 °C 1006.3 hPa SSE 1.6 km/h 1.6 km/h 92% 0 mm 88 W/m2
08:40 6.4 °C 5.2 °C 1006.3 hPa South 3.2 km/h 3.2 km/h 92% 0 mm 83 W/m2
08:46 7.2 °C 6 °C 1006.3 hPa SSW 3.2 km/h 6.4 km/h 92% 0 mm 56 W/m2
08:52 7.7 °C 6.3 °C 1006.3 hPa South 4.8 km/h 4.8 km/h 91% 0 mm 63 W/m2
08:58 7.9 °C 6.3 °C 1006 hPa South 3.2 km/h 4.8 km/h 90% 0 mm 86 W/m2
09:04 8.2 °C 6.4 °C 1006.3 hPa South 3.2 km/h 4.8 km/h 89% 0 mm 54 W/m2
09:10 8.3 °C 6.4 °C 1006.3 hPa South 1.6 km/h 1.6 km/h 88% 0 mm 60 W/m2
09:16 8.3 °C 6.3 °C 1006 hPa South 3.2 km/h 4.8 km/h 87% 0 mm 58 W/m2
09:22 8.2 °C 6 °C 1006 hPa South 3.2 km/h 3.2 km/h 86% 0 mm 70 W/m2
09:28 8.4 °C 6 °C 1006 hPa South 1.6 km/h 3.2 km/h 85% 0 mm 77 W/m2
09:34 8.6 °C 6.2 °C 1006 hPa SE 1.6 km/h 3.2 km/h 85% 0 mm 51 W/m2
09:40 8.7 °C 6.3 °C 1005.6 hPa SSW 1.6 km/h 1.6 km/h 85% 0 mm 56 W/m2
09:46 8.7 °C 6.2 °C 1005.6 hPa SSW 1.6 km/h 4.8 km/h 84% 0 mm 63 W/m2
09:52 8.9 °C 6.3 °C 1005.6 hPa SSW 1.6 km/h 1.6 km/h 84% 0 mm 70 W/m2
09:58 8.9 °C 6.4 °C 1005.6 hPa South 1.6 km/h 1.6 km/h 84% 0 mm 58 W/m2
10:04 9.1 °C 6.3 °C 1005.6 hPa South 1.6 km/h 1.6 km/h 83% 0 mm 63 W/m2
10:10 9.1 °C 6.3 °C 1005.6 hPa Calm   1.6 km/h 83% 0 mm 98 W/m2
10:16 9.1 °C 6.3 °C 1005.3 hPa Calm   3.2 km/h 83% 0 mm 174 W/m2
10:22 9.4 °C 6.7 °C 1005.6 hPa SSE 1.6 km/h 1.6 km/h 83% 0 mm 213 W/m2
10:24 9.6 °C 6.8 °C 1005.6 hPa SSE 1.6 km/h 1.6 km/h 83% 0 mm 192 W/m2
10:30 9.9 °C 6.8 °C 1005.3 hPa Calm     81% 0 mm 271 W/m2
10:36 10.2 °C 6.9 °C 1005.3 hPa Calm   1.6 km/h 80% 0 mm 246 W/m2
10:42 10.6 °C 7.1 °C 1005.3 hPa SSE 1.6 km/h 4.8 km/h 79% 0 mm 179 W/m2
10:48 10.9 °C 7.2 °C 1005.3 hPa SSE 1.6 km/h 4.8 km/h 78% 0 mm 253 W/m2
10:54 11.1 °C 7.2 °C 1005.3 hPa SSW 3.2 km/h 6.4 km/h 77% 0 mm 237 W/m2
11:00 11.3 °C 7.4 °C 1005.3 hPa West 4.8 km/h 4.8 km/h 77% 0 mm 279 W/m2
11:06 11.6 °C 7.5 °C 1005.3 hPa SSW 4.8 km/h 4.8 km/h 76% 0 mm 278 W/m2
11:12 11.9 °C 7.7 °C 1005.3 hPa South 4.8 km/h 4.8 km/h 75% 0 mm 301 W/m2
11:18 12.2 °C 7.7 °C 1005.3 hPa SW 4.8 km/h 6.4 km/h 74% 0 mm 271 W/m2
11:24 12.2 °C 7.5 °C 1005.3 hPa WSW 6.4 km/h 6.4 km/h 73% 0 mm 308 W/m2
11:30 12.4 °C 7.7 °C 1005.3 hPa West 6.4 km/h 8 km/h 73% 0 mm 381 W/m2
11:36 12.5 °C 7.6 °C 1005.3 hPa NW 6.4 km/h 11.3 km/h 72% 0 mm 281 W/m2
11:42 12.8 °C 7.7 °C 1005.3 hPa SW 6.4 km/h 6.4 km/h 71% 0 mm 640 W/m2
11:48 13.1 °C 7.7 °C 1005 hPa West 8 km/h 8 km/h 70% 0 mm 561 W/m2
11:54 13.2 °C 7.6 °C 1005 hPa SSW 9.7 km/h 12.9 km/h 69% 0 mm 547 W/m2
12:00 13.2 °C 7.7 °C 1004.6 hPa WNW 11.3 km/h 11.3 km/h 69% 0 mm 548 W/m2
12:06 13.3 °C 7.6 °C 1004.6 hPa West 9.7 km/h 14.5 km/h 68% 0 mm 608 W/m2
12:12 13.6 °C 7.6 °C 1004.6 hPa WNW 9.7 km/h 22.5 km/h 67% 0 mm 573 W/m2
12:18 13.6 °C 7.4 °C 1004.6 hPa WSW 9.7 km/h 22.5 km/h 66% 0 mm 557 W/m2
12:24 13.8 °C 7.6 °C 1004.6 hPa West 8 km/h 9.7 km/h 66% 0 mm 529 W/m2
12:30 13.8 °C 7.3 °C 1004.3 hPa West 9.7 km/h 9.7 km/h 65% 0 mm 533 W/m2
12:36 14 °C 7.3 °C 1004.6 hPa SW 8 km/h 11.3 km/h 64% 0 mm 455 W/m2
12:42 13.9 °C 7 °C 1004.6 hPa WSW 8 km/h 8 km/h 63% 0 mm 385 W/m2
12:48 13.9 °C 6.7 °C 1004.3 hPa West 8 km/h 14.5 km/h 62% 0 mm 418 W/m2
12:54 14 °C 6.6 °C 1004.3 hPa West 8 km/h 14.5 km/h 61% 0 mm 450 W/m2
13:00 14 °C 6.3 °C 1004.3 hPa West 8 km/h 8 km/h 60% 0 mm 401 W/m2
13:06 14 °C 6.3 °C 1004.3 hPa WSW 6.4 km/h 9.7 km/h 60% 0 mm 427 W/m2
13:12 14.1 °C 6.2 °C 1004.3 hPa WSW 6.4 km/h 20.9 km/h 59% 0 mm 360 W/m2
13:18 14.2 °C 6 °C 1004.3 hPa WSW 6.4 km/h 20.9 km/h 58% 0 mm 360 W/m2
13:24 14.2 °C 6 °C 1004.3 hPa West 6.4 km/h 6.4 km/h 58% 0 mm 343 W/m2
13:30 14.3 °C 6.1 °C 1003.9 hPa WSW 4.8 km/h 4.8 km/h 58% 0 mm 359 W/m2
13:36 14.3 °C 5.9 °C 1003.9 hPa WNW 4.8 km/h 8 km/h 57% 0 mm 367 W/m2
13:42 14.2 °C 6.1 °C 1003.9 hPa WSW 8 km/h 14.5 km/h 58% 0 mm 339 W/m2
13:48 14.1 °C 5.9 °C 1003.9 hPa WSW 8 km/h 14.5 km/h 58% 0 mm 288 W/m2
13:54 13.9 °C 5.8 °C 1003.9 hPa WSW 6.4 km/h 11.3 km/h 58% 0 mm 255 W/m2
14:00 13.9 °C 6 °C 1003.9 hPa West 6.4 km/h 9.7 km/h 59% 0 mm 223 W/m2
14:06 13.8 °C 5.9 °C 1003.9 hPa West 6.4 km/h 6.4 km/h 59% 0 mm 188 W/m2
14:12 13.7 °C 6.1 °C 1003.6 hPa WSW 6.4 km/h 6.4 km/h 60% 0 mm 165 W/m2
14:18 13.6 °C 6 °C 1003.9 hPa WSW 6.4 km/h 8 km/h 60% 0 mm 151 W/m2
14:24 13.5 °C 6.1 °C 1003.9 hPa WSW 6.4 km/h 16.1 km/h 61% 0 mm 149 W/m2
14:30 13.5 °C 6.1 °C 1003.9 hPa WSW 6.4 km/h 6.4 km/h 61% 0 mm 144 W/m2
14:36 13.3 °C 5.9 °C 1003.9 hPa WSW 4.8 km/h 11.3 km/h 61% 0 mm 165 W/m2
14:42 13.3 °C 6.2 °C 1003.9 hPa SSW 4.8 km/h 11.3 km/h 62% 0 mm 188 W/m2
14:48 13.3 °C 6.2 °C 1003.9 hPa SSW 4.8 km/h 14.5 km/h 62% 0 mm 199 W/m2
14:54 13.4 °C 6.3 °C 1003.6 hPa West 6.4 km/h 6.4 km/h 62% 0 mm 181 W/m2
15:00 13.4 °C 6.5 °C 1003.6 hPa WSW 6.4 km/h 6.4 km/h 63% 0 mm 169 W/m2
15:06 13.3 °C 6.4 °C 1003.6 hPa West 4.8 km/h 6.4 km/h 63% 0 mm 279 W/m2
15:12 13.6 °C 6.7 °C 1003.6 hPa WSW 6.4 km/h 6.4 km/h 63% 0 mm 183 W/m2
15:18 13.4 °C 6.6 °C 1003.3 hPa West 8 km/h 11.3 km/h 63% 0 mm 137 W/m2
15:24 13.4 °C 6.7 °C 1003.3 hPa SW 8 km/h 8 km/h 64% 0 mm 174 W/m2
15:30 13.3 °C 6.7 °C 1003.3 hPa SSW 6.4 km/h 11.3 km/h 64% 0 mm 163 W/m2
15:36 13.3 °C 6.7 °C 1003.3 hPa West 6.4 km/h 11.3 km/h 64% 0 mm 144 W/m2
15:42 13.3 °C 6.6 °C 1003.3 hPa SW 4.8 km/h 4.8 km/h 64% 0 mm 100 W/m2
15:48 13.3 °C 6.6 °C 1003.3 hPa SW 4.8 km/h 8 km/h 64% 0 mm 134 W/m2
15:54 13.3 °C 6.6 °C 1003.3 hPa WSW 4.8 km/h 4.8 km/h 64% 0 mm 123 W/m2
16:00 13.2 °C 6.6 °C 1003.3 hPa West 3.2 km/h 11.3 km/h 64% 0 mm 104 W/m2
16:06 13.1 °C 6.7 °C 1003.3 hPa West 3.2 km/h 11.3 km/h 65% 0 mm 74 W/m2
16:14 13.1 °C 6.6 °C 1002.9 hPa West 3.2 km/h 3.2 km/h 65% 0 mm 77 W/m2
16:22 13.1 °C 6.8 °C 1002.9 hPa SW 3.2 km/h 4.8 km/h 66% 0 mm 58 W/m2
16:28 12.9 °C 6.7 °C 1002.9 hPa WSW 3.2 km/h 4.8 km/h 66% 0 mm 51 W/m2
16:34 12.9 °C 6.7 °C 1002.9 hPa WSW 1.6 km/h 3.2 km/h 66% 0 mm 40 W/m2
16:40 12.8 °C 6.8 °C 1002.9 hPa WSW 1.6 km/h 3.2 km/h 67% 0 mm 39 W/m2
16:46 12.7 °C 6.7 °C 1002.9 hPa WSW 1.6 km/h 3.2 km/h 67% 0 mm 35 W/m2
16:52 12.6 °C 6.6 °C 1003.3 hPa Calm   1.6 km/h 67% 0 mm 26 W/m2
16:58 12.3 °C 6.6 °C 1003.3 hPa Calm   1.6 km/h 68% 0 mm 19 W/m2
17:04 12.2 °C 6.7 °C 1003.6 hPa Calm     69% 0 mm 9 W/m2
17:10 12.1 °C 6.6 °C 1003.6 hPa WSW 1.6 km/h 1.6 km/h 69% 0 mm 5 W/m2
17:16 12 °C 6.5 °C 1003.6 hPa Calm   1.6 km/h 69% 0 mm 5 W/m2
17:22 11.8 °C 6.5 °C 1003.3 hPa Calm     70% 0 mm 0 W/m2
17:28 11.6 °C 6.3 °C 1003.3 hPa Calm   1.6 km/h 70% 0 mm 0 W/m2
17:34 11.4 °C 6.3 °C 1003.6 hPa Calm   1.6 km/h 71% 0 mm 0 W/m2
17:40 11.2 °C 6.1 °C 1003.6 hPa Calm     71% 0 mm 0 W/m2
17:46 10.7 °C 5.6 °C 1003.3 hPa Calm     71% 0 mm 0 W/m2
17:52 10.2 °C 5.6 °C 1003.3 hPa Calm   1.6 km/h 73% 0 mm 0 W/m2
17:58 10.1 °C 5.7 °C 1003.3 hPa WSW 1.6 km/h 1.6 km/h 74% 0 mm 0 W/m2
18:04 10.3 °C 6.1 °C 1003.3 hPa Calm     75% 0 mm 0 W/m2
18:10 10.6 °C 6.1 °C 1003.3 hPa Calm     74% 0 mm 0 W/m2
18:16 10.5 °C 6.1 °C 1003.3 hPa Calm   1.6 km/h 74% 0 mm 0 W/m2
18:22 10.4 °C 6 °C 1003.3 hPa Calm   3.2 km/h 74% 0 mm 0 W/m2
18:28 10.3 °C 5.8 °C 1003.3 hPa Calm   3.2 km/h 74% 0 mm 0 W/m2
18:34 10.1 °C 5.9 °C 1003.3 hPa Calm     75% 0 mm 0 W/m2
18:40 10.1 °C 6 °C 1003.3 hPa Calm   1.6 km/h 76% 0 mm 0 W/m2
18:46 10.2 °C 6.2 °C 1002.9 hPa WSW 1.6 km/h 1.6 km/h 76% 0 mm 0 W/m2
18:52 10.4 °C 6.6 °C 1002.9 hPa South 1.6 km/h 3.2 km/h 77% 0 mm 0 W/m2
18:58 10.6 °C 6.5 °C 1002.9 hPa South 1.6 km/h 3.2 km/h 76% 0 mm 0 W/m2
19:04 10.4 °C 6.6 °C 1002.9 hPa South 1.6 km/h 1.6 km/h 77% 0 mm 0 W/m2
19:10 10.3 °C 6.6 °C 1002.6 hPa Calm   3.2 km/h 78% 0 mm 0 W/m2
19:16 10.3 °C 6.7 °C 1002.6 hPa South 1.6 km/h 3.2 km/h 78% 0 mm 0 W/m2
19:22 10.3 °C 6.6 °C 1002.6 hPa Calm     78% 0 mm 0 W/m2
19:28 9.9 °C 6.4 °C 1002.6 hPa Calm     79% 0 mm 0 W/m2
19:34 9.6 °C 6.3 °C 1002.6 hPa Calm   1.6 km/h 80% 0 mm 0 W/m2
19:40 9.4 °C 6.3 °C 1002.3 hPa Calm     81% 0 mm 0 W/m2
19:46 9.1 °C 6 °C 1002.3 hPa Calm     81% 0 mm 0 W/m2
19:52 8.4 °C 5.4 °C 1001.9 hPa Calm     81% 0 mm 0 W/m2
19:58 7.8 °C 4.9 °C 1001.9 hPa Calm     82% 0 mm 0 W/m2
20:04 7.4 °C 4.7 °C 1001.9 hPa Calm   1.6 km/h 83% 0 mm 0 W/m2
20:10 7 °C 4.3 °C 1001.9 hPa Calm     83% 0 mm 0 W/m2
20:16 6.5 °C 4 °C 1001.9 hPa Calm     84% 0 mm 0 W/m2
20:22 6.1 °C 3.6 °C 1001.6 hPa Calm     84% 0 mm 0 W/m2
20:28 6 °C 3.8 °C 1001.6 hPa Calm     86% 0 mm 0 W/m2
20:34 6 °C 4 °C 1001.6 hPa Calm     87% 0 mm 0 W/m2
20:40 5.7 °C 3.7 °C 1001.6 hPa Calm     87% 0 mm 0 W/m2
20:46 5.6 °C 3.7 °C 1001.2 hPa Calm     88% 0 mm 0 W/m2
20:52 5.5 °C 3.7 °C 1001.2 hPa Calm     88% 0 mm 0 W/m2
20:58 5.3 °C 3.5 °C 1001.6 hPa Calm     88% 0 mm 0 W/m2
21:04 5.3 °C 3.6 °C 1001.2 hPa Calm     89% 0 mm 0 W/m2
21:10 5.2 °C 3.5 °C 1001.6 hPa Calm     89% 0 mm 0 W/m2
21:16 5.1 °C 3.4 °C 1001.6 hPa Calm     89% 0 mm 0 W/m2
21:22 4.9 °C 3.2 °C 1001.6 hPa Calm     89% 0 mm 0 W/m2
21:28 4.7 °C 3 °C 1001.6 hPa Calm   1.6 km/h 89% 0 mm 0 W/m2
21:34 4.6 °C 2.9 °C 1001.9 hPa Calm     89% 0 mm 0 W/m2
21:40 4.8 °C 3.3 °C 1001.6 hPa Calm     90% 0 mm 0 W/m2
21:46 4.9 °C 3.4 °C 1001.6 hPa Calm     90% 0 mm 0 W/m2
21:52 5.1 °C 3.6 °C 1001.6 hPa Calm     90% 0 mm 0 W/m2
21:58 5.2 °C 3.7 °C 1001.6 hPa Calm     90% 0 mm 0 W/m2
22:04 5.2 °C 3.7 °C 1001.6 hPa Calm     90% 0 mm 0 W/m2
22:10 5.3 °C 3.9 °C 1001.6 hPa Calm     91% 0 mm 0 W/m2
22:16 5.4 °C 4.1 °C 1001.9 hPa Calm     91% 0 mm 0 W/m2
22:22 5.3 °C 4 °C 1001.9 hPa Calm   3.2 km/h 91% 0 mm 0 W/m2
22:28 5.2 °C 3.8 °C 1001.9 hPa South 1.6 km/h 3.2 km/h 91% 0 mm 0 W/m2
22:34 6.1 °C 4.7 °C 1001.9 hPa North 3.2 km/h 11.3 km/h 91% 0 mm 0 W/m2
22:40 6.4 °C 5.2 °C 1001.9 hPa NNE 4.8 km/h 4.8 km/h 92% 0 mm 0 W/m2
22:46 6.8 °C 5.6 °C 1001.6 hPa North 4.8 km/h 6.4 km/h 92% 0 mm 0 W/m2
22:52 7.1 °C 5.8 °C 1001.9 hPa NNW 4.8 km/h 4.8 km/h 92% 0 mm 0 W/m2
22:58 7.1 °C 5.8 °C 1001.9 hPa NNW 4.8 km/h 4.8 km/h 92% 0 mm 0 W/m2
23:04 7.1 °C 5.9 °C 1001.9 hPa NNW 3.2 km/h 6.4 km/h 92% 0 mm 0 W/m2
23:10 7.2 °C 5.9 °C 1001.9 hPa NNW 3.2 km/h 3.2 km/h 92% 0 mm 0 W/m2
23:16 7.1 °C 5.9 °C 1001.9 hPa NNW 1.6 km/h 4.8 km/h 92% 0 mm 0 W/m2
23:22 7.1 °C 5.9 °C 1001.9 hPa NW 3.2 km/h 4.8 km/h 92% 0 mm 0 W/m2
23:28 7.3 °C 6.1 °C 1002.6 hPa NW 6.4 km/h 9.7 km/h 92% 0 mm 0 W/m2
23:34 7.3 °C 6.1 °C 1002.6 hPa NNW 4.8 km/h 6.4 km/h 92% 0 mm 0 W/m2
23:40 7.3 °C 6.1 °C 1002.6 hPa NNW 4.8 km/h 4.8 km/h 92% 0 mm 0 W/m2
23:46 7.2 °C 5.9 °C 1002.6 hPa NNW 6.4 km/h 8 km/h 92% 0 mm 0 W/m2
23:52 6.9 °C 5.7 °C 1002.6 hPa NW 6.4 km/h 6.4 km/h 92% 0 mm 0 W/m2
23:58 6.9 °C 5.7 °C 1002.6 hPa NW 6.4 km/h 11.3 km/h 92% 0 mm 0 W/m2
Country Meadow, Clay, NY, USA
Compliments of Weather Underground - 2 mb